createdAt,value
2022-08-14T00:02:03.019Z,20.12
2022-08-14T00:04:35.596Z,20.10
2022-08-14T00:07:11.132Z,20.10
2022-08-14T00:09:55.218Z,20.10
2022-08-14T00:12:48.190Z,20.11
2022-08-14T00:15:23.058Z,20.11
2022-08-14T00:17:53.469Z,20.11
2022-08-14T00:20:30.752Z,20.12
2022-08-14T00:23:12.642Z,20.13
2022-08-14T00:25:53.706Z,20.14
2022-08-14T00:28:35.573Z,20.15
2022-08-14T00:31:05.685Z,20.13
2022-08-14T00:33:51.595Z,20.10
2022-08-14T00:36:36.650Z,20.08
2022-08-14T00:39:13.953Z,19.90
2022-08-14T00:41:42.514Z,19.95
2022-08-14T00:44:10.407Z,19.89
2022-08-14T00:46:38.568Z,19.83
2022-08-14T00:49:08.042Z,19.77
2022-08-14T00:51:39.228Z,19.70
2022-08-14T00:54:11.016Z,19.67
2022-08-14T00:56:51.473Z,19.63
2022-08-14T00:59:27.819Z,19.59
2022-08-14T01:01:58.721Z,19.60
2022-08-14T01:04:51.577Z,19.55
2022-08-14T01:07:20.139Z,19.57
2022-08-14T01:09:53.020Z,19.55
2022-08-14T01:12:26.730Z,19.58
2022-08-14T01:14:58.249Z,19.63
2022-08-14T01:17:49.659Z,19.70
2022-08-14T01:20:40.110Z,19.74
2022-08-14T01:23:15.619Z,19.77
2022-08-14T01:25:51.029Z,19.78
2022-08-14T01:28:34.432Z,19.79
2022-08-14T01:31:14.277Z,19.81
2022-08-14T01:35:15.578Z,19.84
2022-08-14T01:36:37.847Z,19.86
2022-08-14T01:39:14.756Z,19.87
2022-08-14T01:41:49.557Z,19.84
2022-08-14T01:44:32.992Z,19.86
2022-08-14T01:47:21.483Z,19.87
2022-08-14T01:50:01.326Z,19.87
2022-08-14T01:52:58.542Z,19.87
2022-08-14T01:55:31.563Z,19.82
2022-08-14T01:58:01.332Z,19.75
2022-08-14T02:00:53.680Z,19.67
2022-08-14T02:03:23.212Z,19.60
2022-08-14T02:05:50.337Z,19.54
2022-08-14T02:08:22.470Z,19.52
2022-08-14T02:11:22.029Z,19.54
2022-08-14T02:13:52.070Z,19.58
2022-08-14T02:16:25.014Z,19.59
2022-08-14T02:18:56.046Z,19.58
2022-08-14T02:21:23.757Z,19.59
2022-08-14T02:23:53.669Z,19.60
2022-08-14T02:26:29.237Z,19.61
2022-08-14T02:29:03.233Z,19.64
2022-08-14T02:31:42.581Z,19.67
2022-08-14T02:34:26.146Z,19.66
2022-08-14T02:37:03.865Z,19.71
2022-08-14T02:39:37.726Z,19.76
2022-08-14T02:42:07.677Z,19.80
2022-08-14T02:44:43.241Z,19.84
2022-08-14T02:47:20.452Z,19.84
2022-08-14T02:49:50.691Z,19.79
2022-08-14T02:52:55.670Z,19.71
2022-08-14T02:55:10.445Z,19.60
2022-08-14T02:57:40.297Z,19.52
2022-08-14T03:00:12.064Z,19.45
2022-08-14T03:02:49.460Z,19.39
2022-08-14T03:05:29.847Z,19.35
2022-08-14T03:08:11.753Z,19.31
2022-08-14T03:10:48.866Z,19.27
2022-08-14T03:13:19.335Z,19.24
2022-08-14T03:15:56.002Z,19.19
2022-08-14T03:18:32.057Z,19.14
2022-08-14T03:21:02.227Z,19.10
2022-08-14T03:23:33.994Z,19.08
2022-08-14T03:26:06.761Z,19.07
2022-08-14T03:28:34.733Z,19.05
2022-08-14T03:31:08.318Z,19.01
2022-08-14T03:33:43.470Z,18.99
2022-08-14T03:37:51.891Z,18.97
2022-08-14T03:39:15.879Z,18.98
2022-08-14T03:41:54.994Z,18.90
2022-08-14T03:45:20.250Z,18.96
2022-08-14T03:47:11.814Z,18.93
2022-08-14T03:49:42.109Z,18.90
2022-08-14T03:52:37.882Z,18.86
2022-08-14T03:54:58.766Z,18.84
2022-08-14T03:57:29.291Z,18.82
2022-08-14T03:59:56.344Z,18.81
2022-08-14T04:02:32.432Z,18.79
2022-08-14T04:05:11.534Z,18.78
2022-08-14T04:07:49.406Z,18.78
2022-08-14T04:10:31.956Z,18.77
2022-08-14T04:13:03.475Z,18.86
2022-08-14T04:15:55.824Z,18.89
2022-08-14T04:18:20.443Z,18.93
2022-08-14T04:20:54.692Z,18.96
2022-08-14T04:23:29.883Z,18.96
2022-08-14T04:26:03.411Z,18.94
2022-08-14T04:29:01.859Z,18.92
2022-08-14T04:32:56.380Z,18.91
2022-08-14T04:34:11.138Z,18.87
2022-08-14T04:37:03.165Z,18.76
2022-08-14T04:39:57.132Z,18.78
2022-08-14T04:42:47.182Z,18.74
2022-08-14T04:45:20.955Z,18.71
2022-08-14T04:48:09.897Z,18.70
2022-08-14T04:50:49.038Z,18.70
2022-08-14T04:53:26.228Z,18.71
2022-08-14T04:55:54.446Z,18.72
2022-08-14T04:58:32.666Z,18.73
2022-08-14T05:01:12.747Z,18.77
2022-08-14T05:03:47.480Z,18.81
2022-08-14T05:06:38.913Z,18.84
2022-08-14T05:09:03.951Z,18.87
2022-08-14T05:11:32.751Z,18.89
2022-08-14T05:14:34.495Z,18.91
2022-08-14T05:16:48.664Z,18.96
2022-08-14T05:19:17.632Z,19.01
2022-08-14T05:22:15.805Z,19.05
2022-08-14T05:24:48.773Z,19.07
2022-08-14T05:27:23.216Z,19.14
2022-08-14T05:29:55.492Z,19.22
2022-08-14T05:32:27.017Z,19.31
2022-08-14T05:34:58.301Z,19.40
2022-08-14T05:37:27.325Z,19.47
2022-08-14T05:39:55.922Z,19.51
2022-08-14T05:42:38.325Z,19.54
2022-08-14T05:45:10.990Z,19.57
2022-08-14T05:47:43.144Z,19.60
2022-08-14T05:50:17.279Z,19.63
2022-08-14T05:52:50.714Z,19.63
2022-08-14T05:55:22.593Z,19.64
2022-08-14T05:57:51.341Z,19.64
2022-08-14T06:00:28.371Z,19.63
2022-08-14T06:03:04.093Z,19.62
2022-08-14T06:05:39.485Z,19.64
2022-08-14T06:08:35.519Z,19.67
2022-08-14T06:11:20.056Z,19.73
2022-08-14T06:13:58.989Z,19.81
2022-08-14T06:16:38.027Z,19.86
2022-08-14T06:19:19.197Z,19.86
2022-08-14T06:22:07.418Z,19.93
2022-08-14T06:24:45.912Z,20.01
2022-08-14T06:27:20.094Z,20.07
2022-08-14T06:35:04.466Z,20.20
2022-08-14T06:37:11.232Z,20.25
2022-08-14T06:39:40.018Z,20.32
2022-08-14T06:42:32.461Z,20.38
2022-08-14T06:45:01.096Z,20.40
2022-08-14T06:47:35.397Z,20.43
2022-08-14T06:50:07.480Z,20.45
2022-08-14T06:52:36.571Z,20.44
2022-08-14T06:55:09.005Z,20.47
2022-08-14T06:57:38.537Z,20.51
2022-08-14T07:00:26.628Z,20.57
2022-08-14T07:03:17.111Z,20.58
2022-08-14T07:05:55.070Z,20.63
2022-08-14T07:08:29.632Z,20.68
2022-08-14T07:11:01.246Z,20.71
2022-08-14T07:13:30.644Z,20.73
2022-08-14T07:16:05.692Z,20.75
2022-08-14T07:18:35.651Z,20.77
2022-08-14T07:21:05.780Z,20.69
2022-08-14T07:23:35.536Z,20.70
2022-08-14T07:26:07.899Z,20.66
2022-08-14T07:28:42.168Z,20.68
2022-08-14T07:31:13.537Z,20.71
2022-08-14T07:33:50.795Z,20.73
2022-08-14T07:36:27.887Z,20.69
2022-08-14T07:39:00.290Z,20.82
2022-08-14T07:41:35.748Z,20.88
2022-08-14T07:44:28.932Z,20.95
2022-08-14T07:46:54.480Z,21.04
2022-08-14T07:49:24.303Z,21.11
2022-08-14T07:51:52.133Z,21.15
2022-08-14T07:54:23.200Z,21.21
2022-08-14T07:56:59.770Z,21.22
2022-08-14T07:59:40.909Z,21.25
2022-08-14T08:02:16.947Z,21.29
2022-08-14T08:04:50.354Z,21.37
2022-08-14T08:07:33.021Z,21.41
2022-08-14T08:10:46.279Z,21.47
2022-08-14T08:13:17.473Z,21.54
2022-08-14T08:15:51.532Z,21.56
2022-08-14T08:18:29.312Z,21.59
2022-08-14T08:21:02.920Z,21.65
2022-08-14T08:23:40.374Z,21.70
2022-08-14T08:26:14.384Z,21.74
2022-08-14T08:28:43.973Z,21.75
2022-08-14T08:31:13.655Z,21.75
2022-08-14T08:33:44.964Z,21.71
2022-08-14T08:36:19.774Z,21.71
2022-08-14T08:39:17.446Z,21.71
2022-08-14T08:41:49.438Z,21.74
2022-08-14T08:44:32.627Z,21.78
2022-08-14T08:47:08.120Z,21.84
2022-08-14T08:49:48.503Z,21.90
2022-08-14T08:52:32.313Z,22.05
2022-08-14T08:55:04.617Z,22.21
2022-08-14T08:57:40.868Z,22.34
2022-08-14T09:00:28.053Z,22.46
2022-08-14T09:03:09.936Z,22.57
2022-08-14T09:05:56.089Z,22.60
2022-08-14T09:08:35.043Z,22.62
2022-08-14T09:11:19.566Z,22.74
2022-08-14T09:13:51.367Z,22.88
2022-08-14T09:16:28.035Z,23.06
2022-08-14T09:19:00.501Z,23.26
2022-08-14T09:21:31.203Z,23.34
2022-08-14T09:24:28.119Z,23.58
2022-08-14T09:26:53.698Z,23.82
2022-08-14T09:29:23.626Z,23.96
2022-08-14T09:31:58.122Z,24.09
2022-08-14T09:34:57.724Z,24.28
2022-08-14T09:38:19.495Z,24.37
2022-08-14T09:40:58.419Z,24.47
2022-08-14T09:43:42.877Z,24.57
2022-08-14T09:46:17.033Z,24.70
2022-08-14T09:49:12.163Z,24.79
2022-08-14T09:51:51.831Z,24.89
2022-08-14T09:54:44.977Z,24.92
2022-08-14T09:57:27.695Z,24.94
2022-08-14T09:59:57.119Z,24.93
2022-08-14T10:02:34.433Z,24.91
2022-08-14T10:05:11.382Z,25.00
2022-08-14T10:07:53.368Z,25.13
2022-08-14T10:10:53.386Z,25.21
2022-08-14T10:13:29.256Z,25.31
2022-08-14T10:16:25.832Z,25.32
2022-08-14T10:19:10.198Z,25.33
2022-08-14T10:21:58.218Z,25.43
2022-08-14T10:24:39.802Z,25.51
2022-08-14T10:27:19.009Z,25.47
2022-08-14T10:30:03.675Z,25.42
2022-08-14T10:32:51.994Z,25.33
2022-08-14T10:35:22.435Z,25.20
2022-08-14T10:37:51.863Z,25.05
2022-08-14T10:40:38.011Z,24.99
2022-08-14T10:43:22.883Z,24.94
2022-08-14T10:46:21.724Z,24.92
2022-08-14T10:49:02.633Z,24.91
2022-08-14T10:51:39.777Z,24.88
2022-08-14T10:54:26.285Z,24.84
2022-08-14T10:57:17.066Z,24.82
2022-08-14T10:59:52.361Z,24.81
2022-08-14T11:02:45.136Z,24.79
2022-08-14T11:05:18.369Z,24.79
2022-08-14T11:07:55.325Z,24.83
2022-08-14T11:10:27.813Z,24.89
2022-08-14T11:12:57.362Z,24.90
2022-08-14T11:15:27.465Z,24.89
2022-08-14T11:18:01.800Z,24.83
2022-08-14T11:20:35.542Z,24.78
2022-08-14T11:23:07.452Z,24.70
2022-08-14T11:25:43.816Z,24.59
2022-08-14T11:28:47.482Z,24.47
2022-08-14T11:31:22.963Z,24.35
2022-08-14T11:33:58.634Z,24.26
2022-08-14T11:36:35.031Z,24.18
2022-08-14T11:39:34.412Z,24.10
2022-08-14T11:42:56.388Z,24.03
2022-08-14T11:45:18.694Z,23.97
2022-08-14T11:48:12.556Z,23.95
2022-08-14T11:50:59.683Z,23.98
2022-08-14T11:53:41.932Z,24.05
2022-08-14T11:56:13.186Z,24.07
2022-08-14T11:58:40.142Z,24.03
2022-08-14T12:01:09.495Z,24.03
2022-08-14T12:03:51.905Z,24.03
2022-08-14T12:06:39.251Z,24.03
2022-08-14T12:09:13.956Z,24.03
2022-08-14T12:11:46.802Z,24.02
2022-08-14T12:14:29.954Z,23.98
2022-08-14T12:17:13.341Z,23.86
2022-08-14T12:19:53.978Z,23.79
2022-08-14T12:22:48.278Z,23.66
2022-08-14T12:25:25.257Z,23.58
2022-08-14T12:28:27.273Z,23.51
2022-08-14T12:31:20.519Z,23.43
2022-08-14T12:34:10.167Z,23.37
2022-08-14T12:36:38.809Z,23.34
2022-08-14T12:39:21.187Z,23.32
2022-08-14T12:42:06.431Z,23.32
2022-08-14T12:44:45.132Z,23.36
2022-08-14T12:47:32.744Z,23.41
2022-08-14T12:50:03.999Z,23.46
2022-08-14T12:52:41.609Z,23.46
2022-08-14T12:55:32.757Z,23.45
2022-08-14T12:58:29.459Z,23.52
2022-08-14T13:01:24.080Z,23.52
2022-08-14T13:04:04.890Z,23.55
2022-08-14T13:06:35.829Z,23.62
2022-08-14T13:09:11.305Z,23.69
2022-08-14T13:11:46.001Z,23.71
2022-08-14T13:14:17.836Z,23.79
2022-08-14T13:16:45.453Z,23.85
2022-08-14T13:19:20.132Z,23.96
2022-08-14T13:22:05.758Z,24.11
2022-08-14T13:24:39.749Z,24.32
2022-08-14T13:27:10.903Z,24.51
2022-08-14T13:29:43.956Z,24.72
2022-08-14T13:32:15.027Z,24.94
2022-08-14T13:34:45.551Z,25.05
2022-08-14T13:37:16.956Z,25.16
2022-08-14T13:39:57.033Z,25.28
2022-08-14T13:42:30.864Z,25.43
2022-08-14T13:45:02.095Z,25.61
2022-08-14T13:47:32.358Z,25.83
2022-08-14T13:50:02.876Z,26.02
2022-08-14T13:52:55.413Z,26.24
2022-08-14T13:55:27.912Z,26.50
2022-08-14T13:58:03.574Z,26.63
2022-08-14T14:00:36.002Z,26.92
2022-08-14T14:03:21.881Z,27.06
2022-08-14T14:05:53.841Z,26.98
2022-08-14T14:08:46.045Z,26.75
2022-08-14T14:11:13.049Z,26.41
2022-08-14T14:13:48.408Z,26.04
2022-08-14T14:16:22.044Z,25.70
2022-08-14T14:19:09.126Z,25.35
2022-08-14T14:21:40.354Z,25.05
2022-08-14T14:24:08.631Z,24.84
2022-08-14T14:26:50.489Z,24.69
2022-08-14T14:29:26.129Z,24.56
2022-08-14T14:31:58.650Z,24.46
2022-08-14T14:34:30.833Z,24.37
2022-08-14T14:37:03.961Z,24.32
2022-08-14T14:39:37.768Z,24.28
2022-08-14T14:42:32.310Z,24.28
2022-08-14T14:45:27.103Z,24.32
2022-08-14T14:47:59.033Z,24.41
2022-08-14T14:50:28.829Z,24.51
2022-08-14T14:53:13.253Z,24.62
2022-08-14T14:55:54.174Z,24.70
2022-08-14T14:58:30.249Z,24.69
2022-08-14T15:01:00.856Z,24.63
2022-08-14T15:03:30.805Z,24.58
2022-08-14T15:05:58.439Z,24.55
2022-08-14T15:08:55.771Z,24.54
2022-08-14T15:11:16.322Z,24.52
2022-08-14T15:13:52.947Z,24.49
2022-08-14T15:16:23.115Z,24.46
2022-08-14T15:18:56.896Z,24.44
2022-08-14T15:21:28.497Z,24.41
2022-08-14T15:23:59.527Z,24.41
2022-08-14T15:26:31.989Z,24.47
2022-08-14T15:29:05.873Z,24.55
2022-08-14T15:31:36.648Z,24.61
2022-08-14T15:34:43.101Z,24.68
2022-08-14T15:37:10.852Z,24.75
2022-08-14T15:39:41.150Z,24.81
2022-08-14T15:42:14.589Z,24.87
2022-08-14T15:44:57.474Z,24.95
2022-08-14T15:47:31.713Z,25.01
2022-08-14T15:50:04.394Z,25.05
2022-08-14T15:52:35.314Z,25.11
2022-08-14T15:55:07.746Z,25.15
2022-08-14T15:57:36.612Z,25.17
2022-08-14T16:00:40.867Z,25.20
2022-08-14T16:03:14.263Z,25.24
2022-08-14T16:05:45.990Z,25.27
2022-08-14T16:08:27.063Z,25.29
2022-08-14T16:11:04.433Z,25.34
2022-08-14T16:13:41.716Z,25.36
2022-08-14T16:16:48.169Z,25.33
2022-08-14T16:18:58.958Z,25.27
2022-08-14T16:21:29.307Z,25.20
2022-08-14T16:24:00.454Z,25.10
2022-08-14T16:26:29.125Z,25.01
2022-08-14T16:29:01.949Z,24.94
2022-08-14T16:31:36.137Z,24.81
2022-08-14T16:34:45.986Z,24.83
2022-08-14T16:36:54.020Z,24.79
2022-08-14T16:39:22.382Z,24.77
2022-08-14T16:41:54.872Z,24.76
2022-08-14T16:44:31.860Z,24.78
2022-08-14T16:47:03.414Z,24.79
2022-08-14T16:50:03.177Z,24.82
2022-08-14T16:52:26.197Z,24.85
2022-08-14T16:55:07.823Z,24.89
2022-08-14T16:57:50.211Z,24.92
2022-08-14T17:00:43.613Z,24.93
2022-08-14T17:03:13.265Z,24.93
2022-08-14T17:05:43.694Z,24.90
2022-08-14T17:08:33.278Z,24.87
2022-08-14T17:11:11.003Z,24.84
2022-08-14T17:13:58.637Z,24.82
2022-08-14T17:16:38.246Z,24.82
2022-08-14T17:19:13.383Z,24.82
2022-08-14T17:21:47.019Z,24.82
2022-08-14T17:24:58.197Z,24.82
2022-08-14T17:27:07.535Z,24.83
2022-08-14T17:29:44.525Z,24.82
2022-08-14T17:32:29.984Z,24.82
2022-08-14T17:35:11.383Z,24.80
2022-08-14T17:37:48.016Z,24.76
2022-08-14T17:40:29.771Z,24.72
2022-08-14T17:43:04.179Z,24.67
2022-08-14T17:45:38.987Z,24.63
2022-08-14T17:49:14.167Z,24.58
2022-08-14T17:51:24.175Z,24.52
2022-08-14T17:54:02.855Z,24.48
2022-08-14T17:56:32.835Z,24.41
2022-08-14T17:59:05.754Z,24.35
2022-08-14T18:01:46.381Z,24.27
2022-08-14T18:04:28.238Z,24.22
2022-08-14T18:07:08.913Z,24.13
2022-08-14T18:09:56.654Z,24.06
2022-08-14T18:12:37.028Z,23.99
2022-08-14T18:15:14.368Z,23.94
2022-08-14T18:17:52.730Z,23.82
2022-08-14T18:21:40.826Z,23.80
2022-08-14T18:23:13.341Z,23.74
2022-08-14T18:25:52.229Z,23.70
2022-08-14T18:28:51.717Z,23.65
2022-08-14T18:31:21.269Z,23.60
2022-08-14T18:34:11.802Z,23.55
2022-08-14T18:36:58.067Z,23.49
2022-08-14T18:40:03.265Z,23.45
2022-08-14T18:42:23.701Z,23.41
2022-08-14T18:44:52.676Z,23.37
2022-08-14T18:47:25.678Z,23.32
2022-08-14T18:50:01.466Z,23.27
2022-08-14T18:52:39.663Z,23.24
2022-08-14T18:55:21.025Z,23.19
2022-08-14T18:57:54.690Z,23.17
2022-08-14T19:00:32.968Z,23.14
2022-08-14T19:03:04.437Z,23.09
2022-08-14T19:05:40.986Z,23.06
2022-08-14T19:08:22.238Z,23.00
2022-08-14T19:11:04.080Z,22.97
2022-08-14T19:13:44.587Z,22.93
2022-08-14T19:16:28.255Z,22.90
2022-08-14T19:19:02.400Z,22.86
2022-08-14T19:21:40.894Z,22.80
2022-08-14T19:24:30.723Z,22.74
2022-08-14T19:27:26.157Z,22.67
2022-08-14T19:30:23.446Z,22.60
2022-08-14T19:32:55.990Z,22.54
2022-08-14T19:35:48.834Z,22.51
2022-08-14T19:38:53.030Z,22.48
2022-08-14T19:41:29.554Z,22.47
2022-08-14T19:44:10.181Z,22.45
2022-08-14T19:47:00.962Z,22.45
2022-08-14T19:50:09.048Z,22.40
2022-08-14T19:52:24.724Z,22.39
2022-08-14T19:54:52.992Z,22.35
2022-08-14T19:57:29.414Z,22.33
2022-08-14T20:00:28.229Z,22.30
2022-08-14T20:03:10.482Z,22.27
2022-08-14T20:05:45.364Z,22.25
2022-08-14T20:10:58.792Z,22.23
2022-08-14T20:11:42.926Z,22.20
2022-08-14T20:14:20.340Z,22.15
2022-08-14T20:17:04.678Z,22.10
2022-08-14T20:19:37.627Z,22.05
2022-08-14T20:22:37.392Z,22.01
2022-08-14T20:25:15.367Z,21.97
2022-08-14T20:27:44.630Z,21.95
2022-08-14T20:30:36.267Z,21.92
2022-08-14T20:33:10.577Z,21.88
2022-08-14T20:35:38.841Z,21.82
2022-08-14T20:38:29.680Z,21.79
2022-08-14T20:41:06.776Z,21.76
2022-08-14T20:43:59.521Z,21.72
2022-08-14T20:46:30.487Z,21.63
2022-08-14T20:49:18.838Z,21.67
2022-08-14T20:51:59.497Z,21.65
2022-08-14T20:54:34.519Z,21.63
2022-08-14T20:57:14.339Z,21.62
2022-08-14T20:59:53.677Z,21.59
2022-08-14T21:02:34.236Z,21.58
2022-08-14T21:05:16.278Z,21.54
2022-08-14T21:07:51.274Z,21.52
2022-08-14T21:10:35.665Z,21.49
2022-08-14T21:14:09.203Z,21.45
2022-08-14T21:16:25.699Z,21.38
2022-08-14T21:18:59.647Z,21.33
2022-08-14T21:21:40.352Z,21.27
2022-08-14T21:24:22.973Z,21.24
2022-08-14T21:27:12.426Z,21.21
2022-08-14T21:29:54.312Z,21.19
2022-08-14T21:32:34.176Z,21.18
2022-08-14T21:35:08.222Z,21.17
2022-08-14T21:37:45.188Z,21.16
2022-08-14T21:40:35.333Z,21.14
2022-08-14T21:43:03.904Z,21.12
2022-08-14T21:45:35.449Z,21.11
2022-08-14T21:48:10.788Z,21.09
2022-08-14T21:51:01.269Z,21.08
2022-08-14T21:53:33.760Z,21.07
2022-08-14T21:56:03.250Z,21.05
2022-08-14T21:58:52.254Z,21.03
2022-08-14T22:01:19.934Z,20.94
2022-08-14T22:03:54.471Z,20.93
2022-08-14T22:06:28.912Z,20.79
2022-08-14T22:08:59.075Z,20.69
2022-08-14T22:11:27.600Z,20.59
2022-08-14T22:13:56.455Z,20.51
2022-08-14T22:16:59.852Z,20.47
2022-08-14T22:19:21.085Z,20.45
2022-08-14T22:21:49.910Z,20.42
2022-08-14T22:24:37.877Z,20.38
2022-08-14T22:27:07.083Z,20.35
2022-08-14T22:29:35.365Z,20.31
2022-08-14T22:32:07.109Z,20.30
2022-08-14T22:34:35.096Z,20.29
2022-08-14T22:37:08.515Z,20.28
2022-08-14T22:40:15.339Z,20.28
2022-08-14T22:42:24.846Z,20.25
2022-08-14T22:44:56.551Z,20.23
2022-08-14T22:47:25.155Z,20.22
2022-08-14T22:50:31.017Z,20.16
2022-08-14T22:52:41.053Z,20.23
2022-08-14T22:55:17.311Z,20.25
2022-08-14T22:57:44.772Z,20.27
2022-08-14T23:00:16.256Z,20.29
2022-08-14T23:02:44.400Z,20.31
2022-08-14T23:05:15.250Z,20.32
2022-08-14T23:08:58.132Z,20.33
2022-08-14T23:10:32.879Z,20.33
2022-08-14T23:13:03.922Z,20.30
2022-08-14T23:15:33.534Z,20.28
2022-08-14T23:18:03.217Z,20.25
2022-08-14T23:20:33.161Z,20.19
2022-08-14T23:23:00.404Z,20.17
2022-08-14T23:25:57.512Z,20.13
2022-08-14T23:28:33.375Z,20.08
2022-08-14T23:31:05.567Z,20.05
2022-08-14T23:33:34.377Z,20.03
2022-08-14T23:36:31.440Z,19.99
2022-08-14T23:38:54.279Z,19.96
2022-08-14T23:41:21.459Z,19.94
2022-08-14T23:43:54.100Z,19.93
2022-08-14T23:46:23.469Z,19.93
2022-08-14T23:49:03.683Z,19.92
2022-08-14T23:51:36.609Z,19.90
2022-08-14T23:54:05.967Z,19.86
2022-08-14T23:57:02.596Z,19.81
2022-08-14T23:59:30.813Z,19.77
